Time;durP1;ratioP1;P1;durP2;ratioP2;P2;SDS_P1;SDS_P2;PMS_P1;PMS_P2;Temp;Humidity;BMP_temperature;BMP_pressure;BME280_temperature;BME280_humidity;BME280_pressure;Samples;Min_cycle;Max_cycle;Signal;HPM_P1;HPM_P2
2021/05/23 00:01:28;;;;;;;10.30;3.03;;;9.50;83.70;;;;;;5056092;28;20319;-85
2021/05/23 00:03:54;;;;;;;9.43;3.07;;;9.50;83.70;;;;;;5038129;28;20218;-85
2021/05/23 00:06:20;;;;;;;15.13;2.97;;;9.50;83.80;;;;;;5055998;28;20191;-85
2021/05/23 00:08:45;;;;;;;17.23;3.97;;;9.50;83.60;;;;;;5056151;28;20572;-85
2021/05/23 00:11:11;;;;;;;14.57;3.37;;;9.50;83.80;;;;;;5055951;28;20172;-85
2021/05/23 00:13:42;;;;;;;14.47;3.33;;;9.50;83.70;;;;;;5037805;28;20222;-85
2021/05/23 00:16:11;;;;;;;9.20;2.93;;;9.40;83.40;;;;;;5038008;28;20167;-85
2021/05/23 00:18:43;;;;;;;10.47;3.30;;;9.50;83.40;;;;;;5055711;28;20164;-85
2021/05/23 00:21:11;;;;;;;6.43;2.90;;;9.40;83.70;;;;;;5055706;28;20172;-85
2021/05/23 00:23:36;;;;;;;14.23;3.00;;;9.40;84.20;;;;;;5037832;28;20199;-85
2021/05/23 00:26:03;;;;;;;11.83;3.37;;;9.40;84.00;;;;;;5055726;28;20172;-85
2021/05/23 00:28:30;;;;;;;12.53;3.40;;;9.40;84.10;;;;;;5055520;28;20176;-85
2021/05/23 00:30:56;;;;;;;8.67;3.40;;;9.40;83.80;;;;;;5037633;28;20263;-85
2021/05/23 00:33:22;;;;;;;12.77;3.80;;;9.40;83.50;;;;;;5055434;28;20242;-85
2021/05/23 00:35:48;;;;;;;12.57;3.67;;;9.50;83.30;;;;;;5055493;28;20184;-85
2021/05/23 00:38:14;;;;;;;14.73;3.53;;;9.40;83.60;;;;;;5037491;28;20566;-85
2021/05/23 00:40:40;;;;;;;11.90;3.50;;;9.40;83.30;;;;;;5037434;28;20196;-85
2021/05/23 00:43:11;;;;;;;13.33;3.07;;;9.50;83.40;;;;;;5055224;28;20530;-85
2021/05/23 00:45:37;;;;;;;11.97;3.17;;;9.50;83.30;;;;;;5055252;28;20218;-85
2021/05/23 00:48:03;;;;;;;10.77;3.50;;;9.40;83.60;;;;;;5037352;28;20547;-85
2021/05/23 00:50:29;;;;;;;9.20;3.03;;;9.40;83.40;;;;;;5037236;28;20172;-85
2021/05/23 00:52:55;;;;;;;15.80;4.03;;;9.40;83.00;;;;;;5054743;28;20257;-85
2021/05/23 00:55:22;;;;;;;15.30;3.63;;;9.50;83.20;;;;;;5037256;28;20172;-85
2021/05/23 00:57:48;;;;;;;11.70;3.20;;;9.50;83.00;;;;;;5037231;28;20176;-85
2021/05/23 01:00:40;;;;;;;9.03;2.93;;;9.40;83.20;;;;;;5037113;28;20200;-85
2021/05/23 01:03:35;;;;;;;14.77;3.33;;;9.40;83.50;;;;;;5036908;28;20236;-85
2021/05/23 01:06:06;;;;;;;12.03;3.40;;;9.40;83.30;;;;;;5037503;28;20261;-85
2021/05/23 01:08:34;;;;;;;13.90;3.80;;;9.40;83.60;;;;;;5054830;28;20234;-85
2021/05/23 01:11:07;;;;;;;12.57;3.33;;;9.40;83.10;;;;;;5036922;28;20207;-84
2021/05/23 01:13:38;;;;;;;12.20;3.97;;;9.40;83.00;;;;;;5036772;28;20196;-84
2021/05/23 01:16:15;;;;;;;15.07;4.10;;;9.40;82.70;;;;;;5054896;28;20176;-84
2021/05/23 01:19:03;;;;;;;14.00;3.30;;;9.40;83.00;;;;;;5054742;28;20178;-85
2021/05/23 01:21:34;;;;;;;11.33;2.87;;;9.40;83.00;;;;;;5036699;28;20172;-85
2021/05/23 01:24:02;;;;;;;11.43;3.03;;;9.40;82.70;;;;;;5036724;28;20661;-85
2021/05/23 01:26:43;;;;;;;11.53;3.43;;;9.40;83.30;;;;;;5054412;28;20214;-85
2021/05/23 01:29:10;;;;;;;12.73;3.53;;;9.30;82.90;;;;;;5036622;28;20183;-85
2021/05/23 01:31:37;;;;;;;11.57;3.40;;;9.40;83.00;;;;;;5036459;28;20203;-84
2021/05/23 01:34:04;;;;;;;15.07;3.60;;;9.40;83.50;;;;;;5036369;28;20207;-85
2021/05/23 01:36:39;;;;;;;12.93;4.50;;;9.30;84.20;;;;;;5036359;28;20187;-85
2021/05/23 01:39:11;;;;;;;13.87;3.40;;;9.30;83.60;;;;;;5036288;28;20171;-85
2021/05/23 01:41:38;;;;;;;14.60;4.50;;;9.30;83.70;;;;;;5054426;28;20153;-85
2021/05/23 01:44:04;;;;;;;15.17;4.83;;;9.30;84.10;;;;;;5054059;28;20194;-85
2021/05/23 01:46:30;;;;;;;12.40;3.47;;;9.30;83.90;;;;;;5036269;28;20707;-85
2021/05/23 01:48:55;;;;;;;10.03;3.93;;;9.30;83.70;;;;;;5036290;28;20554;-85
2021/05/23 01:51:21;;;;;;;15.03;3.70;;;9.30;83.50;;;;;;5036174;28;20172;-85
2021/05/23 01:53:47;;;;;;;19.40;4.67;;;9.30;83.70;;;;;;5053862;28;20192;-85
2021/05/23 01:56:13;;;;;;;9.90;2.73;;;9.30;83.60;;;;;;5036068;28;20209;-85
2021/05/23 01:58:38;;;;;;;16.50;4.03;;;9.30;83.00;;;;;;5035968;28;20180;-85
2021/05/23 02:01:05;;;;;;;13.77;3.57;;;9.30;82.80;;;;;;5053763;28;20210;-85
2021/05/23 02:03:32;;;;;;;8.77;3.10;;;9.30;82.90;;;;;;5035038;28;20211;-85
2021/05/23 02:06:00;;;;;;;18.73;4.60;;;9.30;82.90;;;;;;5053854;28;20183;-85
2021/05/23 02:08:27;;;;;;;8.70;3.20;;;9.30;83.00;;;;;;5054245;28;20176;-85
2021/05/23 02:10:57;;;;;;;17.50;3.50;;;9.30;83.20;;;;;;5053685;28;20180;-85
2021/05/23 02:13:23;;;;;;;20.07;4.23;;;9.30;83.60;;;;;;5053542;28;20247;-85
2021/05/23 02:15:50;;;;;;;14.70;3.50;;;9.30;83.60;;;;;;5053562;28;20288;-85
2021/05/23 02:18:15;;;;;;;15.47;4.20;;;9.30;83.40;;;;;;5053678;28;20176;-85
2021/05/23 02:20:41;;;;;;;16.97;3.67;;;9.30;83.70;;;;;;5035636;28;20269;-84
2021/05/23 02:23:14;;;;;;;18.53;4.77;;;9.30;83.40;;;;;;5053578;28;20245;-85
2021/05/23 02:25:40;;;;;;;13.53;3.47;;;9.20;83.40;;;;;;5054092;28;20156;-85
2021/05/23 02:28:07;;;;;;;17.20;3.43;;;9.20;83.70;;;;;;5035607;28;20544;-85
2021/05/23 02:30:36;;;;;;;14.53;4.33;;;9.30;83.20;;;;;;5035398;28;20229;-85
2021/05/23 02:33:05;;;;;;;13.90;3.77;;;9.30;82.70;;;;;;5035436;28;20204;-85
2021/05/23 02:35:33;;;;;;;14.07;3.63;;;9.20;82.70;;;;;;5053283;28;20168;-85
2021/05/23 02:37:59;;;;;;;13.07;4.43;;;9.20;82.80;;;;;;5053345;28;20176;-85
2021/05/23 02:40:29;;;;;;;12.53;3.80;;;9.10;83.10;;;;;;5035459;28;20207;-84
2021/05/23 02:42:56;;;;;;;13.87;3.53;;;9.00;83.30;;;;;;5053170;28;20196;-85
2021/05/23 02:45:23;;;;;;;13.20;3.27;;;9.10;82.90;;;;;;5035247;28;20179;-85
2021/05/23 02:47:49;;;;;;;15.77;3.80;;;9.00;82.90;;;;;;5053496;28;20206;-85
2021/05/23 02:50:22;;;;;;;10.13;3.40;;;9.00;82.90;;;;;;5053176;28;20230;-85
2021/05/23 02:52:48;;;;;;;16.07;4.40;;;9.00;83.30;;;;;;5053102;28;20160;-85
2021/05/23 02:55:16;;;;;;;9.37;3.00;;;8.90;83.50;;;;;;5053177;28;20225;-85
2021/05/23 02:57:43;;;;;;;12.47;3.40;;;8.90;83.50;;;;;;5035182;28;20193;-85
2021/05/23 03:00:12;;;;;;;9.53;3.07;;;8.80;83.10;;;;;;5053154;28;20195;-85
2021/05/23 03:02:38;;;;;;;10.17;3.83;;;8.80;83.50;;;;;;5034936;28;20172;-85
2021/05/23 03:05:05;;;;;;;15.33;3.97;;;8.80;83.50;;;;;;5053232;28;20535;-85
2021/05/23 03:07:39;;;;;;;16.87;3.87;;;8.70;83.50;;;;;;5053098;28;20164;-85
2021/05/23 03:10:10;;;;;;;12.03;3.70;;;8.70;83.40;;;;;;5035125;28;20182;-85
2021/05/23 03:12:36;;;;;;;16.47;3.50;;;8.70;83.70;;;;;;5053195;28;20210;-85
2021/05/23 03:15:03;;;;;;;13.40;3.43;;;8.60;83.70;;;;;;5053897;28;20219;-84
2021/05/23 03:17:29;;;;;;;11.57;3.00;;;8.50;83.90;;;;;;5039285;28;20524;-85
2021/05/23 03:19:54;;;;;;;12.03;3.57;;;8.50;84.30;;;;;;5056910;28;20203;-85
2021/05/23 03:22:20;;;;;;;17.30;4.10;;;8.50;84.40;;;;;;5038922;28;20183;-85
2021/05/23 03:24:45;;;;;;;10.30;3.57;;;8.40;84.40;;;;;;5056742;28;20203;-85
2021/05/23 03:27:11;;;;;;;11.20;3.33;;;8.50;84.70;;;;;;5056796;28;20176;-85
2021/05/23 03:29:37;;;;;;;11.93;3.13;;;8.60;84.50;;;;;;5038775;28;20636;-85
2021/05/23 03:32:02;;;;;;;12.07;3.47;;;8.60;84.20;;;;;;5056720;28;20179;-84
2021/05/23 03:34:28;;;;;;;17.37;4.37;;;8.70;84.10;;;;;;5056592;28;20565;-85
2021/05/23 03:36:54;;;;;;;14.00;4.23;;;8.70;84.30;;;;;;5056890;28;20180;-85
2021/05/23 03:39:19;;;;;;;14.63;4.37;;;8.70;84.60;;;;;;5038723;28;20568;-85
2021/05/23 03:41:45;;;;;;;13.97;3.50;;;8.70;84.50;;;;;;5056554;28;20256;-85
2021/05/23 03:44:11;;;;;;;15.00;4.40;;;8.70;84.50;;;;;;5056446;28;20203;-85
2021/05/23 03:46:36;;;;;;;17.13;3.63;;;8.70;84.60;;;;;;5038579;28;20196;-85
2021/05/23 03:49:03;;;;;;;20.27;4.53;;;8.70;84.30;;;;;;5056784;28;20179;-85
2021/05/23 03:51:28;;;;;;;11.63;3.30;;;8.70;84.00;;;;;;5056286;28;20176;-85
2021/05/23 03:53:54;;;;;;;21.50;4.00;;;8.60;84.30;;;;;;5038338;28;20196;-85
2021/05/23 03:56:20;;;;;;;7.50;2.87;;;8.60;84.10;;;;;;5038420;28;20180;-85
2021/05/23 03:58:45;;;;;;;15.50;3.73;;;8.60;84.20;;;;;;5038285;28;20180;-85
2021/05/23 04:01:11;;;;;;;15.10;3.30;;;8.50;84.40;;;;;;5056067;28;20257;-85
2021/05/23 04:03:37;;;;;;;12.00;3.63;;;8.50;84.30;;;;;;5056042;28;20243;-84
2021/05/23 04:06:04;;;;;;;11.40;3.17;;;8.40;84.40;;;;;;5038305;28;20187;-85
2021/05/23 04:08:29;;;;;;;21.80;4.37;;;8.40;84.60;;;;;;5056052;28;20238;-85
2021/05/23 04:11:00;;;;;;;18.17;4.20;;;8.40;84.50;;;;;;5055972;28;20565;-84
2021/05/23 04:13:26;;;;;;;11.43;3.63;;;8.30;84.70;;;;;;5056094;28;20192;-84
2021/05/23 04:15:52;;;;;;;15.70;3.67;;;8.30;84.70;;;;;;5055878;28;20176;-84
2021/05/23 04:18:17;;;;;;;7.63;3.57;;;8.30;85.00;;;;;;5037980;28;20230;-84
2021/05/23 04:20:43;;;;;;;13.23;4.07;;;8.30;85.00;;;;;;5055761;28;20218;-85
2021/05/23 04:23:09;;;;;;;13.93;3.97;;;8.30;85.20;;;;;;5037833;28;20323;-84
2021/05/23 04:25:35;;;;;;;18.57;3.70;;;8.30;85.00;;;;;;5055616;28;20176;-84
2021/05/23 04:28:00;;;;;;;13.80;3.70;;;8.40;84.70;;;;;;5055223;28;20259;-84
2021/05/23 04:30:27;;;;;;;15.87;4.07;;;8.40;84.60;;;;;;5055558;28;20172;-84
2021/05/23 04:32:54;;;;;;;13.83;4.33;;;8.40;84.60;;;;;;5037624;28;20223;-84
2021/05/23 04:35:21;;;;;;;13.83;3.77;;;8.40;84.60;;;;;;5037667;28;20211;-84
2021/05/23 04:37:46;;;;;;;14.97;4.03;;;8.50;84.70;;;;;;5037580;28;20180;-84
2021/05/23 04:40:14;;;;;;;13.00;4.00;;;8.60;84.20;;;;;;5055479;28;20202;-84
2021/05/23 04:42:41;;;;;;;10.83;3.30;;;8.60;84.60;;;;;;5055370;28;20664;-84
2021/05/23 04:45:07;;;;;;;14.20;3.57;;;8.60;84.30;;;;;;5037449;28;20186;-84
2021/05/23 04:47:35;;;;;;;14.17;3.43;;;8.50;83.70;;;;;;5055348;28;20255;-84
2021/05/23 04:50:01;;;;;;;12.27;3.47;;;8.60;83.90;;;;;;5055274;28;20226;-84
2021/05/23 04:52:27;;;;;;;10.90;3.50;;;8.50;84.00;;;;;;5055412;28;20172;-84
2021/05/23 04:54:52;;;;;;;10.33;3.40;;;8.50;84.10;;;;;;5037223;28;20250;-85
2021/05/23 04:57:18;;;;;;;10.03;3.70;;;8.60;84.20;;;;;;5055380;28;20601;-85
2021/05/23 04:59:44;;;;;;;12.70;3.27;;;8.60;84.10;;;;;;5054913;28;20712;-85
2021/05/23 05:02:09;;;;;;;12.47;3.17;;;8.60;83.80;;;;;;5055037;28;20659;-85
2021/05/23 05:04:35;;;;;;;11.43;4.20;;;8.60;83.60;;;;;;5036909;28;20710;-85
2021/05/23 05:07:00;;;;;;;11.87;3.83;;;8.60;84.10;;;;;;5037056;28;20168;-85
2021/05/23 05:09:26;;;;;;;19.93;3.47;;;8.60;84.30;;;;;;5037003;28;20172;-85
2021/05/23 05:11:52;;;;;;;15.73;4.03;;;8.60;84.20;;;;;;5054809;28;20634;-85
2021/05/23 05:14:18;;;;;;;17.57;3.87;;;8.60;84.30;;;;;;5036818;28;20196;-85
2021/05/23 05:16:43;;;;;;;14.03;3.03;;;8.80;84.70;;;;;;5055073;28;20192;-84
2021/05/23 05:19:10;;;;;;;10.87;3.57;;;8.90;84.20;;;;;;5036824;28;20622;-85
2021/05/23 05:21:36;;;;;;;12.03;2.73;;;8.90;83.70;;;;;;5054597;28;20160;-85
2021/05/23 05:24:03;;;;;;;10.23;3.63;;;8.80;82.90;;;;;;5054510;28;20202;-85
2021/05/23 05:26:29;;;;;;;14.23;4.60;;;8.80;83.70;;;;;;5054560;28;20172;-85
2021/05/23 05:28:54;;;;;;;19.13;4.43;;;8.90;83.60;;;;;;5054777;28;20175;-85
2021/05/23 05:31:20;;;;;;;14.50;3.83;;;8.80;83.30;;;;;;5054526;28;20165;-85
2021/05/23 05:33:45;;;;;;;14.27;3.30;;;8.80;82.80;;;;;;5054311;28;20195;-85
2021/05/23 05:36:11;;;;;;;9.47;3.30;;;8.80;82.90;;;;;;5054408;28;20170;-84
2021/05/23 05:38:37;;;;;;;11.77;3.13;;;8.90;83.10;;;;;;5053601;28;20172;-85
2021/05/23 05:41:03;;;;;;;11.23;3.63;;;9.00;83.30;;;;;;5036333;28;20196;-84
2021/05/23 05:43:28;;;;;;;6.93;2.87;;;9.20;83.40;;;;;;5054063;28;20302;-84
2021/05/23 05:45:54;;;;;;;15.53;3.57;;;9.20;82.50;;;;;;5054233;28;20629;-85
2021/05/23 05:48:20;;;;;;;20.00;3.43;;;9.30;81.80;;;;;;5036356;28;20259;-84
2021/05/23 05:50:47;;;;;;;14.23;2.90;;;9.30;81.80;;;;;;5036280;28;20172;-85
2021/05/23 05:53:12;;;;;;;20.60;3.63;;;9.40;82.10;;;;;;5053983;28;20275;-84
2021/05/23 05:55:38;;;;;;;15.37;3.80;;;9.50;82.70;;;;;;5036159;28;20766;-85
2021/05/23 05:58:04;;;;;;;14.27;3.70;;;9.40;82.00;;;;;;5036122;28;20179;-85
2021/05/23 06:00:29;;;;;;;11.90;3.37;;;9.50;81.90;;;;;;5036130;28;20203;-85
2021/05/23 06:02:55;;;;;;;15.23;3.67;;;9.60;82.00;;;;;;5053505;28;20235;-85
2021/05/23 06:05:21;;;;;;;18.93;3.40;;;9.60;82.10;;;;;;5128038;22;20277;-84
2021/05/23 06:07:47;;;;;;;13.67;3.63;;;9.60;81.40;;;;;;5054137;28;20172;-84
2021/05/23 06:10:14;;;;;;;14.27;3.30;;;9.70;81.50;;;;;;5053932;28;20168;-83
2021/05/23 06:12:40;;;;;;;13.23;3.70;;;9.80;81.80;;;;;;5056177;28;20221;-83
2021/05/23 06:15:07;;;;;;;14.77;3.10;;;9.80;80.60;;;;;;5054666;28;20206;-84
2021/05/23 06:17:33;;;;;;;13.47;3.70;;;9.70;81.10;;;;;;5039511;28;20208;-85
2021/05/23 06:19:59;;;;;;;18.67;3.67;;;9.70;80.80;;;;;;5057728;28;20559;-83
2021/05/23 06:22:24;;;;;;;13.80;3.93;;;9.70;81.00;;;;;;5054463;28;20209;-83
2021/05/23 06:24:50;;;;;;;14.37;3.40;;;9.80;81.60;;;;;;5054136;28;20188;-83
2021/05/23 06:27:16;;;;;;;17.43;3.33;;;9.90;81.70;;;;;;5036156;28;20298;-84
2021/05/23 06:29:43;;;;;;;16.93;3.23;;;10.00;81.50;;;;;;5035946;28;20175;-83
2021/05/23 06:32:09;;;;;;;12.40;3.07;;;10.10;80.90;;;;;;5054085;28;20172;-83
2021/05/23 06:34:34;;;;;;;16.90;2.93;;;10.30;79.90;;;;;;5053932;28;20708;-84
2021/05/23 06:37:01;;;;;;;11.53;3.13;;;10.30;79.10;;;;;;5054407;28;20176;-83
2021/05/23 06:39:27;;;;;;;15.27;3.10;;;10.40;80.40;;;;;;5053634;28;20261;-83
2021/05/23 06:41:52;;;;;;;19.13;3.83;;;10.30;78.90;;;;;;5054025;28;20179;-84
2021/05/23 06:44:18;;;;;;;16.50;3.03;;;10.30;79.00;;;;;;5053626;28;20192;-84
2021/05/23 06:46:44;;;;;;;16.97;3.17;;;10.20;80.10;;;;;;5054154;28;20644;-83
2021/05/23 06:49:10;;;;;;;14.67;2.70;;;10.00;78.70;;;;;;5036599;28;20179;-83
2021/05/23 06:51:36;;;;;;;19.03;3.10;;;10.30;80.30;;;;;;5035490;28;20176;-83
2021/05/23 06:54:02;;;;;;;13.53;3.63;;;10.40;78.70;;;;;;5035451;28;20180;-84
2021/05/23 06:56:27;;;;;;;18.57;3.47;;;10.30;79.50;;;;;;5035657;28;20186;-84
2021/05/23 06:58:53;;;;;;;11.30;2.43;;;10.30;78.90;;;;;;5035410;28;20214;-84
2021/05/23 07:01:19;;;;;;;13.43;3.53;;;10.50;78.70;;;;;;5053549;28;20250;-84
2021/05/23 07:03:44;;;;;;;15.30;3.13;;;10.50;77.30;;;;;;5053775;28;20198;-84
2021/05/23 07:06:10;;;;;;;10.53;3.13;;;10.60;78.20;;;;;;5053400;28;20204;-84
2021/05/23 07:08:36;;;;;;;6.87;2.50;;;10.80;76.80;;;;;;5053314;28;20175;-84
2021/05/23 07:11:01;;;;;;;14.17;3.20;;;10.80;77.70;;;;;;5053959;28;20180;-83
2021/05/23 07:13:27;;;;;;;12.00;2.77;;;10.80;78.10;;;;;;5053362;28;20180;-83
2021/05/23 07:15:54;;;;;;;10.53;2.57;;;10.90;77.30;;;;;;5053590;28;20210;-82
2021/05/23 07:18:20;;;;;;;9.53;2.70;;;10.90;77.40;;;;;;5053626;28;20267;-83
2021/05/23 07:20:46;;;;;;;14.17;2.93;;;10.90;78.30;;;;;;5053667;28;20615;-83
2021/05/23 07:23:12;;;;;;;14.80;2.13;;;10.90;75.60;;;;;;5053738;28;20592;-82
2021/05/23 07:25:38;;;;;;;15.17;2.83;;;11.10;74.70;;;;;;5053589;28;20256;-82
2021/05/23 07:28:04;;;;;;;16.57;2.83;;;11.00;75.30;;;;;;5035650;28;20176;-83
2021/05/23 07:30:29;;;;;;;20.77;3.10;;;11.10;76.90;;;;;;5053218;28;20183;-83
2021/05/23 07:32:55;;;;;;;11.13;2.63;;;11.30;76.40;;;;;;5035349;28;20201;-83
2021/05/23 07:35:20;;;;;;;13.87;2.40;;;11.20;75.50;;;;;;5035674;28;20204;-83
2021/05/23 07:37:46;;;;;;;11.60;3.00;;;11.20;75.10;;;;;;5035161;28;20191;-82
2021/05/23 07:40:12;;;;;;;10.70;2.40;;;11.40;75.30;;;;;;5034918;28;20294;-83
2021/05/23 07:42:39;;;;;;;12.80;2.10;;;11.50;73.90;;;;;;5052961;28;20172;-83
2021/05/23 07:45:06;;;;;;;16.13;4.00;;;11.60;72.10;;;;;;5035020;28;20568;-83
2021/05/23 07:47:31;;;;;;;13.47;2.83;;;11.40;74.70;;;;;;5053150;28;20182;-83
2021/05/23 07:49:57;;;;;;;8.90;2.50;;;11.30;73.60;;;;;;5052955;28;20180;-83
2021/05/23 07:52:23;;;;;;;11.63;2.23;;;11.30;74.40;;;;;;5052671;28;20172;-83
2021/05/23 07:54:48;;;;;;;6.17;2.40;;;11.60;76.50;;;;;;5052905;28;20687;-85
2021/05/23 07:57:14;;;;;;;13.10;2.90;;;11.80;75.40;;;;;;5053066;28;20648;-85
2021/05/23 07:59:40;;;;;;;8.67;2.37;;;11.80;74.30;;;;;;5053231;28;20196;-85
2021/05/23 08:02:06;;;;;;;14.60;3.03;;;11.70;75.30;;;;;;5054087;28;20537;-84
2021/05/23 08:04:32;;;;;;;11.40;2.20;;;12.00;74.00;;;;;;5056157;28;20200;-84
2021/05/23 08:06:57;;;;;;;12.10;2.20;;;12.10;74.40;;;;;;5056389;28;20647;-86
2021/05/23 08:09:23;;;;;;;9.77;2.40;;;11.90;72.30;;;;;;5039232;28;20169;-85
2021/05/23 08:11:49;;;;;;;11.50;2.70;;;11.70;72.20;;;;;;5057464;28;20168;-86
2021/05/23 08:14:15;;;;;;;11.07;2.80;;;11.90;72.70;;;;;;5038928;28;20213;-86
2021/05/23 08:16:43;;;;;;;9.63;2.13;;;12.20;74.50;;;;;;5039000;28;20548;-86
2021/05/23 08:19:10;;;;;;;10.83;2.07;;;12.20;70.80;;;;;;5039185;28;20549;-86
2021/05/23 08:21:36;;;;;;;12.40;2.00;;;12.20;70.60;;;;;;5057163;28;20644;-86
2021/05/23 08:24:01;;;;;;;8.10;2.13;;;12.20;72.00;;;;;;5038359;28;20180;-85
2021/05/23 08:26:27;;;;;;;7.90;2.47;;;12.30;72.20;;;;;;5056036;28;20188;-85
2021/05/23 08:28:53;;;;;;;8.00;2.10;;;12.20;71.10;;;;;;5056855;28;20678;-86
2021/05/23 08:31:18;;;;;;;11.90;1.90;;;12.30;71.40;;;;;;5038285;28;20216;-85
2021/05/23 08:33:44;;;;;;;7.47;2.00;;;12.20;71.40;;;;;;5038063;28;20184;-85
2021/05/23 08:36:10;;;;;;;8.27;1.97;;;12.20;72.50;;;;;;5055441;28;20563;-85
2021/05/23 08:38:36;;;;;;;5.40;1.63;;;11.90;71.90;;;;;;5037642;28;20176;-85
2021/05/23 08:41:03;;;;;;;8.90;2.20;;;12.30;71.90;;;;;;5055960;28;20192;-85
2021/05/23 08:43:29;;;;;;;6.47;1.63;;;12.30;69.60;;;;;;5055665;28;20229;-85
2021/05/23 08:45:56;;;;;;;7.87;1.87;;;12.10;68.10;;;;;;5037372;28;20198;-85
2021/05/23 08:48:21;;;;;;;11.53;2.27;;;12.00;70.10;;;;;;5037338;28;20176;-85
2021/05/23 08:50:48;;;;;;;8.83;1.80;;;12.30;70.00;;;;;;5055333;28;20175;-85
2021/05/23 08:53:15;;;;;;;7.13;1.90;;;12.20;68.40;;;;;;5037281;28;20276;-85
2021/05/23 08:55:43;;;;;;;11.37;2.23;;;12.10;71.10;;;;;;5037245;28;20239;-85
2021/05/23 08:58:08;;;;;;;7.97;1.70;;;12.20;71.60;;;;;;5037403;28;20255;-85
2021/05/23 09:00:34;;;;;;;7.40;1.80;;;11.90;68.10;;;;;;5037055;28;20226;-85
2021/05/23 09:03:03;;;;;;;7.57;1.77;;;12.20;70.00;;;;;;5055102;28;20167;-85
2021/05/23 09:05:35;;;;;;;5.37;2.00;;;12.50;69.50;;;;;;5054874;28;20710;-84
2021/05/23 09:08:03;;;;;;;9.87;2.10;;;12.70;68.70;;;;;;5055254;28;20239;-85
2021/05/23 09:10:34;;;;;;;7.80;2.80;;;12.80;68.60;;;;;;5037091;28;20235;-85
2021/05/23 09:13:00;;;;;;;5.00;1.60;;;13.20;71.40;;;;;;5036914;28;20180;-85
2021/05/23 09:15:27;;;;;;;4.90;1.53;;;13.30;69.00;;;;;;5036752;28;20200;-84
2021/05/23 09:18:11;;;;;;;9.40;2.10;;;13.50;66.60;;;;;;5054789;28;20195;-85
2021/05/23 09:20:42;;;;;;;7.27;1.73;;;13.70;68.10;;;;;;5036844;28;20242;-84
2021/05/23 09:23:23;;;;;;;13.47;2.97;;;13.20;64.70;;;;;;5054743;28;20191;-84
2021/05/23 09:25:49;;;;;;;8.87;1.90;;;13.00;66.50;;;;;;5036723;28;20211;-83
2021/05/23 09:28:15;;;;;;;8.00;2.97;;;13.30;67.30;;;;;;5054592;28;20172;-83
2021/05/23 09:30:43;;;;;;;9.50;3.00;;;13.20;64.70;;;;;;5036755;28;20270;-84
2021/05/23 09:33:16;;;;;;;11.10;3.37;;;13.60;67.80;;;;;;5036608;28;20180;-84
2021/05/23 09:35:43;;;;;;;9.87;2.70;;;13.60;66.90;;;;;;5054400;28;20192;-85
2021/05/23 09:38:10;;;;;;;5.97;1.90;;;13.70;65.20;;;;;;5054673;28;20195;-85
2021/05/23 09:40:38;;;;;;;7.70;2.33;;;13.70;63.80;;;;;;5036574;28;20192;-85
2021/05/23 09:43:06;;;;;;;6.67;1.97;;;14.00;67.80;;;;;;5054195;28;20263;-85
2021/05/23 09:45:48;;;;;;;7.17;2.27;;;14.20;67.50;;;;;;5054076;28;20192;-85
2021/05/23 09:48:23;;;;;;;7.37;1.90;;;14.50;63.90;;;;;;5054722;28;20547;-86
2021/05/23 09:50:51;;;;;;;4.03;1.53;;;14.10;61.00;;;;;;5036543;28;20172;-85
2021/05/23 09:53:31;;;;;;;8.67;2.13;;;13.60;62.60;;;;;;5036214;28;20203;-86
2021/05/23 09:56:03;;;;;;;4.33;1.73;;;13.80;65.60;;;;;;5036415;28;20206;-85
2021/05/23 09:58:33;;;;;;;5.77;2.00;;;14.20;64.70;;;;;;5035908;28;20176;-86
2021/05/23 10:00:59;;;;;;;5.80;1.73;;;14.40;66.40;;;;;;5054267;28;20219;-84
2021/05/23 10:03:30;;;;;;;5.33;1.80;;;14.60;65.80;;;;;;5054019;28;20180;-84
2021/05/23 10:05:57;;;;;;;9.20;2.30;;;14.70;64.00;;;;;;5053856;28;20257;-84
2021/05/23 10:08:23;;;;;;;3.57;1.77;;;14.20;63.90;;;;;;5053886;28;20183;-85
2021/05/23 10:10:49;;;;;;;8.93;1.83;;;13.90;63.70;;;;;;5053982;28;20173;-85
2021/05/23 10:13:18;;;;;;;6.60;1.80;;;13.90;63.50;;;;;;5054080;28;20647;-84
2021/05/23 10:15:44;;;;;;;6.03;2.00;;;13.70;66.00;;;;;;5053563;28;20198;-84
2021/05/23 10:18:11;;;;;;;12.50;2.20;;;13.30;66.20;;;;;;5054558;28;20525;-84
2021/05/23 10:20:38;;;;;;;6.63;2.50;;;13.40;64.50;;;;;;5035800;28;20192;-84
2021/05/23 10:23:18;;;;;;;6.03;1.60;;;13.30;64.60;;;;;;5053548;28;20175;-84
2021/05/23 10:25:48;;;;;;;5.53;1.80;;;13.10;66.70;;;;;;5053122;28;20195;-84
2021/05/23 10:28:15;;;;;;;5.63;2.03;;;13.60;66.00;;;;;;5035834;28;20164;-84
2021/05/23 10:30:51;;;;;;;5.00;1.73;;;14.00;67.20;;;;;;5035752;28;20546;-84
2021/05/23 10:33:18;;;;;;;8.57;1.90;;;14.00;64.00;;;;;;5035630;28;20172;-85
2021/05/23 10:35:46;;;;;;;10.20;2.20;;;14.20;64.10;;;;;;5035655;28;20192;-85
2021/05/23 10:38:14;;;;;;;5.10;1.43;;;14.70;65.70;;;;;;5053375;28;20168;-85
2021/05/23 10:40:54;;;;;;;12.87;3.80;;;14.80;62.40;;;;;;5053325;28;20196;-84
2021/05/23 10:43:25;;;;;;;3.03;1.63;;;15.00;59.80;;;;;;5053333;28;20259;-84
2021/05/23 10:46:06;;;;;;;5.57;1.83;;;14.80;59.20;;;;;;5035479;28;20198;-83
2021/05/23 10:48:32;;;;;;;5.33;1.77;;;14.60;61.00;;;;;;5053623;28;20164;-83
2021/05/23 10:50:57;;;;;;;3.20;1.30;;;14.50;62.00;;;;;;5053707;28;20230;-83
2021/05/23 10:53:34;;;;;;;10.80;1.67;;;14.30;59.00;;;;;;5053884;28;20250;-83
2021/05/23 10:55:59;;;;;;;2.60;1.20;;;14.50;62.40;;;;;;5053697;28;20555;-84
2021/05/23 10:58:27;;;;;;;2.70;1.20;;;14.40;61.50;;;;;;5053809;28;20211;-83
2021/05/23 11:00:55;;;;;;;3.70;1.40;;;14.00;60.00;;;;;;5053893;28;20191;-83
2021/05/23 11:03:23;;;;;;;5.67;1.60;;;13.90;62.10;;;;;;5035653;28;20176;-84
2021/05/23 11:06:05;;;;;;;7.60;1.70;;;14.10;64.20;;;;;;5053754;28;20204;-84
2021/05/23 11:08:36;;;;;;;4.63;2.00;;;14.50;62.40;;;;;;5053676;28;20164;-84
2021/05/23 11:11:03;;;;;;;3.23;1.63;;;14.60;62.70;;;;;;5035734;28;20655;-84
2021/05/23 11:13:34;;;;;;;5.27;1.67;;;14.40;60.40;;;;;;5035764;28;20183;-83
2021/05/23 11:16:10;;;;;;;2.93;1.30;;;14.40;59.20;;;;;;5053360;28;20207;-84
2021/05/23 11:18:36;;;;;;;6.67;1.50;;;14.50;62.40;;;;;;5035257;28;20176;-84
2021/05/23 11:21:08;;;;;;;2.63;1.20;;;14.60;62.10;;;;;;5036601;28;20698;-83
2021/05/23 11:23:46;;;;;;;3.17;1.53;;;14.40;61.80;;;;;;5036497;28;20163;-83
2021/05/23 11:26:15;;;;;;;6.07;1.83;;;14.60;63.50;;;;;;5037112;28;20171;-84
2021/05/23 11:28:54;;;;;;;6.87;1.80;;;14.60;63.80;;;;;;5054407;28;20247;-84
2021/05/23 11:31:27;;;;;;;5.90;1.90;;;14.80;62.90;;;;;;5053672;28;20191;-85
2021/05/23 11:33:53;;;;;;;4.07;1.60;;;15.00;62.60;;;;;;5054940;28;20164;-84
2021/05/23 11:36:22;;;;;;;2.77;1.37;;;14.80;61.10;;;;;;5055382;28;20671;-85
2021/05/23 11:38:48;;;;;;;5.90;1.57;;;14.50;60.40;;;;;;5057181;28;20172;-85
2021/05/23 11:41:29;;;;;;;5.63;1.20;;;14.60;62.50;;;;;;5058371;28;20188;-84
2021/05/23 11:43:56;;;;;;;4.10;1.30;;;14.20;60.60;;;;;;5039747;28;20168;-85
2021/05/23 11:46:22;;;;;;;3.87;1.40;;;14.30;61.00;;;;;;5058091;28;20214;-85
2021/05/23 11:48:49;;;;;;;1.97;1.03;;;14.10;61.00;;;;;;5040967;28;20643;-84
2021/05/23 11:51:21;;;;;;;7.60;1.70;;;13.60;61.80;;;;;;5059613;28;20175;-85
2021/05/23 11:53:48;;;;;;;4.37;1.50;;;13.50;61.20;;;;;;5039834;28;20646;-84
2021/05/23 11:56:17;;;;;;;5.47;1.40;;;13.50;62.80;;;;;;5039849;28;20191;-85
2021/05/23 11:58:53;;;;;;;3.23;1.50;;;13.60;63.00;;;;;;5041406;28;20534;-86
2021/05/23 12:01:29;;;;;;;2.57;1.50;;;13.50;62.10;;;;;;5059298;28;20187;-84
2021/05/23 12:04:06;;;;;;;3.30;1.37;;;13.60;62.00;;;;;;5060227;28;20183;-84
2021/05/23 12:06:38;;;;;;;3.37;1.50;;;13.70;61.00;;;;;;5148244;22;20254;-84
2021/05/23 12:09:31;;;;;;;3.57;1.60;;;13.50;61.50;;;;;;5056628;28;20163;-85
2021/05/23 12:12:05;;;;;;;4.70;1.50;;;13.60;61.00;;;;;;5055612;28;20172;-86
2021/05/23 12:14:34;;;;;;;3.10;1.30;;;13.50;61.90;;;;;;5045549;28;20156;-86
2021/05/23 12:17:09;;;;;;;10.33;1.57;;;13.70;62.50;;;;;;5021717;28;20195;-87
2021/05/23 12:19:48;;;;;;;3.93;1.10;;;13.80;62.30;;;;;;5021466;28;20687;-86
2021/05/23 12:22:23;;;;;;;5.47;1.50;;;13.90;62.20;;;;;;5020845;28;20165;-87
2021/05/23 12:24:57;;;;;;;2.27;1.23;;;13.90;60.80;;;;;;5035747;28;20215;-86
2021/05/23 12:27:28;;;;;;;2.67;2.30;;;13.80;61.40;;;;;;5036013;28;20207;-86
2021/05/23 12:30:13;;;;;;;17.60;3.30;;;13.80;63.50;;;;;;5036056;28;20173;-87
2021/05/23 12:32:53;;;;;;;4.17;1.50;;;13.90;64.80;;;;;;5017958;28;20165;-87
2021/05/23 12:35:23;;;;;;;3.73;1.80;;;14.00;62.70;;;;;;5025563;28;20230;-87
2021/05/23 12:37:54;;;;;;;4.10;1.40;;;14.00;61.90;;;;;;5025591;28;20181;-86
2021/05/23 12:40:45;;;;;;;4.03;1.53;;;14.20;59.90;;;;;;5021876;28;20189;-85
2021/05/23 12:43:31;;;;;;;6.43;1.37;;;14.50;59.60;;;;;;5034331;28;20211;-85
2021/05/23 12:46:00;;;;;;;4.97;1.30;;;14.90;58.50;;;;;;5035376;28;20185;-84
2021/05/23 12:48:29;;;;;;;2.73;1.30;;;15.10;56.10;;;;;;5034934;28;20173;-84
2021/05/23 12:50:55;;;;;;;4.97;1.30;;;14.80;58.00;;;;;;5017594;28;20235;-85